sensor_id;sensor_type;location;lat;lon;timestamp;P1;durP1;ratioP1;P2;durP2;ratioP2
56517;SDS011;42419;48.760;2.322;2023-04-01T00:00:26;2.87;;;1.80;;
56517;SDS011;42419;48.760;2.322;2023-04-01T00:02:51;3.60;;;1.70;;
56517;SDS011;42419;48.760;2.322;2023-04-01T00:05:17;3.03;;;2.03;;
56517;SDS011;42419;48.760;2.322;2023-04-01T00:07:42;4.57;;;2.00;;
56517;SDS011;42419;48.760;2.322;2023-04-01T00:10:09;3.80;;;2.40;;
56517;SDS011;42419;48.760;2.322;2023-04-01T00:12:37;4.77;;;1.90;;
56517;SDS011;42419;48.760;2.322;2023-04-01T00:15:04;2.93;;;1.90;;
56517;SDS011;42419;48.760;2.322;2023-04-01T00:17:31;2.33;;;1.90;;
56517;SDS011;42419;48.760;2.322;2023-04-01T00:19:56;2.70;;;1.87;;
56517;SDS011;42419;48.760;2.322;2023-04-01T00:22:23;2.37;;;1.70;;
56517;SDS011;42419;48.760;2.322;2023-04-01T00:24:48;5.23;;;1.97;;
56517;SDS011;42419;48.760;2.322;2023-04-01T00:27:14;3.70;;;2.03;;
56517;SDS011;42419;48.760;2.322;2023-04-01T00:29:44;4.10;;;1.93;;
56517;SDS011;42419;48.760;2.322;2023-04-01T00:32:11;3.20;;;1.93;;
56517;SDS011;42419;48.760;2.322;2023-04-01T00:34:37;4.20;;;2.07;;
56517;SDS011;42419;48.760;2.322;2023-04-01T00:37:02;3.47;;;2.07;;
56517;SDS011;42419;48.760;2.322;2023-04-01T00:39:28;3.10;;;2.00;;
56517;SDS011;42419;48.760;2.322;2023-04-01T00:41:54;4.13;;;1.77;;
56517;SDS011;42419;48.760;2.322;2023-04-01T00:44:25;2.70;;;1.80;;
56517;SDS011;42419;48.760;2.322;2023-04-01T00:46:52;2.97;;;2.00;;
56517;SDS011;42419;48.760;2.322;2023-04-01T00:49:19;3.50;;;2.00;;
56517;SDS011;42419;48.760;2.322;2023-04-01T00:51:48;2.43;;;1.60;;
56517;SDS011;42419;48.760;2.322;2023-04-01T00:54:17;3.13;;;2.00;;
56517;SDS011;42419;48.760;2.322;2023-04-01T00:56:46;2.03;;;1.60;;
56517;SDS011;42419;48.760;2.322;2023-04-01T00:59:18;2.40;;;1.70;;
56517;SDS011;42419;48.760;2.322;2023-04-01T01:01:48;4.97;;;2.27;;
56517;SDS011;42419;48.760;2.322;2023-04-01T01:04:27;2.90;;;1.70;;
56517;SDS011;42419;48.760;2.322;2023-04-01T01:09:42;5.00;;;2.23;;
56517;SDS011;42419;48.760;2.322;2023-04-01T01:12:23;2.87;;;1.80;;
56517;SDS011;42419;48.760;2.322;2023-04-01T01:20:16;2.53;;;1.77;;
56517;SDS011;42419;48.760;2.322;2023-04-01T01:26:00;3.63;;;1.90;;
56517;SDS011;42419;48.760;2.322;2023-04-01T01:28:49;4.33;;;1.70;;
56517;SDS011;42419;48.760;2.322;2023-04-01T01:34:35;2.17;;;1.60;;
56517;SDS011;42419;48.760;2.322;2023-04-01T01:37:20;2.20;;;1.40;;
56517;SDS011;42419;48.760;2.322;2023-04-01T01:39:51;4.00;;;1.80;;
56517;SDS011;42419;48.760;2.322;2023-04-01T01:42:20;2.80;;;1.70;;
56517;SDS011;42419;48.760;2.322;2023-04-01T01:44:49;2.43;;;1.67;;
56517;SDS011;42419;48.760;2.322;2023-04-01T01:47:16;3.30;;;2.00;;
56517;SDS011;42419;48.760;2.322;2023-04-01T01:49:44;2.00;;;1.60;;
56517;SDS011;42419;48.760;2.322;2023-04-01T01:52:10;3.43;;;1.97;;
56517;SDS011;42419;48.760;2.322;2023-04-01T01:54:46;3.40;;;2.13;;
56517;SDS011;42419;48.760;2.322;2023-04-01T01:57:12;1.97;;;1.53;;
56517;SDS011;42419;48.760;2.322;2023-04-01T01:59:39;2.47;;;1.60;;
56517;SDS011;42419;48.760;2.322;2023-04-01T02:02:08;4.70;;;1.60;;
56517;SDS011;42419;48.760;2.322;2023-04-01T02:04:36;2.73;;;1.80;;
56517;SDS011;42419;48.760;2.322;2023-04-01T02:07:04;2.90;;;1.67;;
56517;SDS011;42419;48.760;2.322;2023-04-01T02:09:33;2.73;;;1.60;;
56517;SDS011;42419;48.760;2.322;2023-04-01T02:12:04;2.63;;;1.93;;
56517;SDS011;42419;48.760;2.322;2023-04-01T02:17:13;3.23;;;1.63;;
56517;SDS011;42419;48.760;2.322;2023-04-01T02:20:24;3.10;;;1.80;;
56517;SDS011;42419;48.760;2.322;2023-04-01T02:22:40;2.03;;;1.40;;
56517;SDS011;42419;48.760;2.322;2023-04-01T02:25:11;2.27;;;1.37;;
56517;SDS011;42419;48.760;2.322;2023-04-01T02:27:40;2.70;;;1.40;;
56517;SDS011;42419;48.760;2.322;2023-04-01T02:30:08;2.93;;;2.00;;
56517;SDS011;42419;48.760;2.322;2023-04-01T02:32:34;2.37;;;1.60;;
56517;SDS011;42419;48.760;2.322;2023-04-01T02:35:03;2.90;;;1.70;;
56517;SDS011;42419;48.760;2.322;2023-04-01T02:37:31;3.37;;;1.70;;
56517;SDS011;42419;48.760;2.322;2023-04-01T02:40:06;1.80;;;1.50;;
56517;SDS011;42419;48.760;2.322;2023-04-01T02:42:32;2.07;;;1.53;;
56517;SDS011;42419;48.760;2.322;2023-04-01T02:44:58;2.30;;;1.60;;
56517;SDS011;42419;48.760;2.322;2023-04-01T02:47:24;2.20;;;1.60;;
56517;SDS011;42419;48.760;2.322;2023-04-01T02:49:49;1.50;;;1.20;;
56517;SDS011;42419;48.760;2.322;2023-04-01T02:52:14;2.10;;;1.50;;
56517;SDS011;42419;48.760;2.322;2023-04-01T02:54:39;2.73;;;1.80;;
56517;SDS011;42419;48.760;2.322;2023-04-01T02:57:05;3.20;;;1.90;;
56517;SDS011;42419;48.760;2.322;2023-04-01T02:59:31;2.90;;;1.67;;
56517;SDS011;42419;48.760;2.322;2023-04-01T03:01:56;3.83;;;1.63;;
56517;SDS011;42419;48.760;2.322;2023-04-01T03:04:22;3.13;;;1.57;;
56517;SDS011;42419;48.760;2.322;2023-04-01T03:06:47;2.23;;;1.60;;
56517;SDS011;42419;48.760;2.322;2023-04-01T03:09:12;2.07;;;1.37;;
56517;SDS011;42419;48.760;2.322;2023-04-01T03:11:38;2.20;;;1.57;;
56517;SDS011;42419;48.760;2.322;2023-04-01T03:14:03;3.30;;;1.73;;
56517;SDS011;42419;48.760;2.322;2023-04-01T03:16:28;3.60;;;1.83;;
56517;SDS011;42419;48.760;2.322;2023-04-01T03:18:54;1.70;;;1.13;;
56517;SDS011;42419;48.760;2.322;2023-04-01T03:21:22;2.33;;;1.50;;
56517;SDS011;42419;48.760;2.322;2023-04-01T03:23:49;4.03;;;1.60;;
56517;SDS011;42419;48.760;2.322;2023-04-01T03:26:15;1.80;;;1.37;;
56517;SDS011;42419;48.760;2.322;2023-04-01T03:28:41;3.47;;;2.33;;
56517;SDS011;42419;48.760;2.322;2023-04-01T03:31:06;3.23;;;1.80;;
56517;SDS011;42419;48.760;2.322;2023-04-01T03:33:32;1.87;;;1.30;;
56517;SDS011;42419;48.760;2.322;2023-04-01T03:35:58;4.10;;;2.03;;
56517;SDS011;42419;48.760;2.322;2023-04-01T03:38:23;2.63;;;1.50;;
56517;SDS011;42419;48.760;2.322;2023-04-01T03:40:48;3.43;;;1.97;;
56517;SDS011;42419;48.760;2.322;2023-04-01T03:43:14;3.10;;;1.53;;
56517;SDS011;42419;48.760;2.322;2023-04-01T03:45:48;3.17;;;1.50;;
56517;SDS011;42419;48.760;2.322;2023-04-01T03:48:14;3.17;;;1.93;;
56517;SDS011;42419;48.760;2.322;2023-04-01T03:50:40;3.77;;;1.80;;
56517;SDS011;42419;48.760;2.322;2023-04-01T03:53:05;1.80;;;1.40;;
56517;SDS011;42419;48.760;2.322;2023-04-01T03:55:31;3.17;;;1.57;;
56517;SDS011;42419;48.760;2.322;2023-04-01T03:57:56;2.93;;;1.47;;
56517;SDS011;42419;48.760;2.322;2023-04-01T04:00:22;3.43;;;1.60;;
56517;SDS011;42419;48.760;2.322;2023-04-01T04:02:47;2.80;;;1.70;;
56517;SDS011;42419;48.760;2.322;2023-04-01T04:05:12;1.67;;;1.53;;
56517;SDS011;42419;48.760;2.322;2023-04-01T04:07:39;2.30;;;1.37;;
56517;SDS011;42419;48.760;2.322;2023-04-01T04:10:04;2.10;;;1.30;;
56517;SDS011;42419;48.760;2.322;2023-04-01T04:12:30;2.07;;;1.50;;
56517;SDS011;42419;48.760;2.322;2023-04-01T04:14:56;2.27;;;1.27;;
56517;SDS011;42419;48.760;2.322;2023-04-01T04:17:21;2.93;;;1.50;;
56517;SDS011;42419;48.760;2.322;2023-04-01T04:19:46;2.63;;;1.60;;
56517;SDS011;42419;48.760;2.322;2023-04-01T04:22:12;2.43;;;1.60;;
56517;SDS011;42419;48.760;2.322;2023-04-01T04:24:37;4.80;;;1.90;;
56517;SDS011;42419;48.760;2.322;2023-04-01T04:27:03;2.83;;;1.60;;
56517;SDS011;42419;48.760;2.322;2023-04-01T04:29:29;4.33;;;1.70;;
56517;SDS011;42419;48.760;2.322;2023-04-01T04:31:55;1.83;;;1.10;;
56517;SDS011;42419;48.760;2.322;2023-04-01T04:34:20;3.10;;;1.57;;
56517;SDS011;42419;48.760;2.322;2023-04-01T04:36:47;2.70;;;1.67;;
56517;SDS011;42419;48.760;2.322;2023-04-01T04:39:13;2.50;;;1.70;;
56517;SDS011;42419;48.760;2.322;2023-04-01T04:41:38;2.00;;;1.33;;
56517;SDS011;42419;48.760;2.322;2023-04-01T04:44:03;1.80;;;1.50;;
56517;SDS011;42419;48.760;2.322;2023-04-01T04:46:29;2.20;;;1.40;;
56517;SDS011;42419;48.760;2.322;2023-04-01T04:48:55;2.80;;;1.70;;
56517;SDS011;42419;48.760;2.322;2023-04-01T04:51:21;2.67;;;1.37;;
56517;SDS011;42419;48.760;2.322;2023-04-01T04:53:48;2.37;;;1.40;;
56517;SDS011;42419;48.760;2.322;2023-04-01T04:56:17;2.57;;;1.73;;
56517;SDS011;42419;48.760;2.322;2023-04-01T04:58:46;2.17;;;1.47;;
56517;SDS011;42419;48.760;2.322;2023-04-01T05:01:13;1.97;;;1.53;;
56517;SDS011;42419;48.760;2.322;2023-04-01T05:03:40;2.37;;;1.53;;
56517;SDS011;42419;48.760;2.322;2023-04-01T05:06:07;3.73;;;1.30;;
56517;SDS011;42419;48.760;2.322;2023-04-01T05:08:33;2.37;;;1.47;;
56517;SDS011;42419;48.760;2.322;2023-04-01T05:10:59;2.73;;;1.53;;
56517;SDS011;42419;48.760;2.322;2023-04-01T05:13:25;1.80;;;1.27;;
56517;SDS011;42419;48.760;2.322;2023-04-01T05:15:51;3.03;;;1.70;;
56517;SDS011;42419;48.760;2.322;2023-04-01T05:18:16;2.23;;;1.60;;
56517;SDS011;42419;48.760;2.322;2023-04-01T05:20:46;2.40;;;1.33;;
56517;SDS011;42419;48.760;2.322;2023-04-01T05:23:12;2.70;;;1.60;;
56517;SDS011;42419;48.760;2.322;2023-04-01T05:25:38;1.70;;;1.30;;
56517;SDS011;42419;48.760;2.322;2023-04-01T05:28:03;2.77;;;1.50;;
56517;SDS011;42419;48.760;2.322;2023-04-01T05:30:28;3.23;;;1.43;;
56517;SDS011;42419;48.760;2.322;2023-04-01T05:32:54;4.10;;;1.30;;
56517;SDS011;42419;48.760;2.322;2023-04-01T05:35:19;3.37;;;1.87;;
56517;SDS011;42419;48.760;2.322;2023-04-01T05:37:45;3.07;;;1.60;;
56517;SDS011;42419;48.760;2.322;2023-04-01T05:40:10;2.27;;;1.50;;
56517;SDS011;42419;48.760;2.322;2023-04-01T05:42:36;4.10;;;1.60;;
56517;SDS011;42419;48.760;2.322;2023-04-01T05:45:01;3.20;;;1.50;;
56517;SDS011;42419;48.760;2.322;2023-04-01T05:47:26;2.10;;;1.53;;
56517;SDS011;42419;48.760;2.322;2023-04-01T05:49:52;3.10;;;1.47;;
56517;SDS011;42419;48.760;2.322;2023-04-01T05:52:17;2.17;;;1.50;;
56517;SDS011;42419;48.760;2.322;2023-04-01T05:54:42;4.33;;;1.40;;
56517;SDS011;42419;48.760;2.322;2023-04-01T05:57:07;1.80;;;1.20;;
56517;SDS011;42419;48.760;2.322;2023-04-01T05:59:33;1.63;;;1.20;;
56517;SDS011;42419;48.760;2.322;2023-04-01T06:01:59;2.47;;;1.30;;
56517;SDS011;42419;48.760;2.322;2023-04-01T06:04:26;2.40;;;1.60;;
56517;SDS011;42419;48.760;2.322;2023-04-01T06:06:57;3.20;;;1.53;;
56517;SDS011;42419;48.760;2.322;2023-04-01T06:09:25;3.00;;;1.33;;
56517;SDS011;42419;48.760;2.322;2023-04-01T06:19:54;2.37;;;1.30;;
56517;SDS011;42419;48.760;2.322;2023-04-01T06:22:35;2.27;;;1.60;;
56517;SDS011;42419;48.760;2.322;2023-04-01T06:32:56;3.43;;;1.47;;
56517;SDS011;42419;48.760;2.322;2023-04-01T06:38:17;2.33;;;1.50;;
56517;SDS011;42419;48.760;2.322;2023-04-01T06:44:14;2.33;;;1.20;;
56517;SDS011;42419;48.760;2.322;2023-04-01T06:52:42;2.40;;;1.50;;
56517;SDS011;42419;48.760;2.322;2023-04-01T06:58:03;6.53;;;5.93;;
56517;SDS011;42419;48.760;2.322;2023-04-01T07:00:37;16.37;;;14.97;;
56517;SDS011;42419;48.760;2.322;2023-04-01T07:05:46;12.53;;;11.40;;
56517;SDS011;42419;48.760;2.322;2023-04-01T07:08:13;11.53;;;10.40;;
56517;SDS011;42419;48.760;2.322;2023-04-01T07:19:06;7.03;;;6.33;;
56517;SDS011;42419;48.760;2.322;2023-04-01T07:21:40;6.83;;;6.13;;
56517;SDS011;42419;48.760;2.322;2023-04-01T07:24:12;5.57;;;5.07;;
56517;SDS011;42419;48.760;2.322;2023-04-01T07:26:44;5.67;;;5.17;;
56517;SDS011;42419;48.760;2.322;2023-04-01T07:29:11;5.90;;;5.30;;
56517;SDS011;42419;48.760;2.322;2023-04-01T07:31:55;6.27;;;5.57;;
56517;SDS011;42419;48.760;2.322;2023-04-01T07:34:28;9.47;;;5.10;;
56517;SDS011;42419;48.760;2.322;2023-04-01T07:37:22;7.70;;;5.23;;
56517;SDS011;42419;48.760;2.322;2023-04-01T07:40:00;10.03;;;4.73;;
56517;SDS011;42419;48.760;2.322;2023-04-01T07:48:24;7.43;;;4.00;;
56517;SDS011;42419;48.760;2.322;2023-04-01T07:51:02;4.80;;;3.80;;
56517;SDS011;42419;48.760;2.322;2023-04-01T07:53:44;9.87;;;3.30;;
56517;SDS011;42419;48.760;2.322;2023-04-01T08:01:39;4.80;;;2.80;;
56517;SDS011;42419;48.760;2.322;2023-04-01T08:04:23;6.77;;;3.40;;
56517;SDS011;42419;48.760;2.322;2023-04-01T08:07:18;5.77;;;3.20;;
56517;SDS011;42419;48.760;2.322;2023-04-01T08:12:51;5.97;;;3.50;;
56517;SDS011;42419;48.760;2.322;2023-04-01T08:15:26;6.07;;;2.33;;
56517;SDS011;42419;48.760;2.322;2023-04-01T08:20:59;7.20;;;2.80;;
56517;SDS011;42419;48.760;2.322;2023-04-01T08:23:31;8.37;;;2.93;;
56517;SDS011;42419;48.760;2.322;2023-04-01T08:26:10;9.00;;;2.60;;
56517;SDS011;42419;48.760;2.322;2023-04-01T08:29:00;4.73;;;2.43;;
56517;SDS011;42419;48.760;2.322;2023-04-01T08:34:08;4.83;;;2.83;;
56517;SDS011;42419;48.760;2.322;2023-04-01T08:36:43;6.23;;;2.47;;
56517;SDS011;42419;48.760;2.322;2023-04-01T08:39:16;4.87;;;2.10;;
56517;SDS011;42419;48.760;2.322;2023-04-01T08:44:37;5.37;;;2.40;;
56517;SDS011;42419;48.760;2.322;2023-04-01T09:01:41;6.17;;;2.37;;
56517;SDS011;42419;48.760;2.322;2023-04-01T09:04:33;6.47;;;2.63;;
56517;SDS011;42419;48.760;2.322;2023-04-01T09:10:34;5.57;;;2.70;;
56517;SDS011;42419;48.760;2.322;2023-04-01T09:15:50;4.20;;;2.20;;
56517;SDS011;42419;48.760;2.322;2023-04-01T09:23:38;4.93;;;2.20;;
56517;SDS011;42419;48.760;2.322;2023-04-01T09:28:39;7.57;;;3.33;;
56517;SDS011;42419;48.760;2.322;2023-04-01T09:31:13;12.20;;;2.73;;
56517;SDS011;42419;48.760;2.322;2023-04-01T09:39:09;11.40;;;2.80;;
56517;SDS011;42419;48.760;2.322;2023-04-01T09:41:36;11.93;;;3.07;;
56517;SDS011;42419;48.760;2.322;2023-04-01T09:50:14;4.70;;;2.20;;
56517;SDS011;42419;48.760;2.322;2023-04-01T09:52:44;5.10;;;2.50;;
56517;SDS011;42419;48.760;2.322;2023-04-01T09:55:50;3.80;;;2.10;;
56517;SDS011;42419;48.760;2.322;2023-04-01T10:21:17;3.43;;;1.63;;
56517;SDS011;42419;48.760;2.322;2023-04-01T10:41:05;3.00;;;1.37;;
56517;SDS011;42419;48.760;2.322;2023-04-01T10:49:21;2.60;;;1.53;;
56517;SDS011;42419;48.760;2.322;2023-04-01T10:55:02;3.50;;;1.73;;
56517;SDS011;42419;48.760;2.322;2023-04-01T10:57:56;2.97;;;1.50;;
56517;SDS011;42419;48.760;2.322;2023-04-01T11:15:34;6.40;;;1.60;;
56517;SDS011;42419;48.760;2.322;2023-04-01T11:18:47;8.13;;;2.10;;
56517;SDS011;42419;48.760;2.322;2023-04-01T11:24:00;6.00;;;1.63;;
56517;SDS011;42419;48.760;2.322;2023-04-01T11:29:24;4.23;;;1.73;;
56517;SDS011;42419;48.760;2.322;2023-04-01T11:32:16;3.10;;;1.90;;
56517;SDS011;42419;48.760;2.322;2023-04-01T11:40:49;3.90;;;1.40;;
56517;SDS011;42419;48.760;2.322;2023-04-01T11:46:19;5.23;;;1.87;;
56517;SDS011;42419;48.760;2.322;2023-04-01T12:00:22;4.43;;;1.80;;
56517;SDS011;42419;48.760;2.322;2023-04-01T12:10:48;3.33;;;1.80;;
56517;SDS011;42419;48.760;2.322;2023-04-01T12:22:09;4.80;;;1.63;;
56517;SDS011;42419;48.760;2.322;2023-04-01T12:25:03;3.60;;;1.50;;
56517;SDS011;42419;48.760;2.322;2023-04-01T12:27:41;3.13;;;1.77;;
56517;SDS011;42419;48.760;2.322;2023-04-01T12:32:54;3.10;;;2.00;;
56517;SDS011;42419;48.760;2.322;2023-04-01T12:35:56;1.77;;;1.20;;
56517;SDS011;42419;48.760;2.322;2023-04-01T12:41:55;2.03;;;1.63;;
56517;SDS011;42419;48.760;2.322;2023-04-01T12:45:18;2.00;;;1.63;;
56517;SDS011;42419;48.760;2.322;2023-04-01T12:53:13;1.73;;;1.60;;
56517;SDS011;42419;48.760;2.322;2023-04-01T12:55:43;2.03;;;1.50;;
56517;SDS011;42419;48.760;2.322;2023-04-01T13:01:06;4.80;;;1.93;;
56517;SDS011;42419;48.760;2.322;2023-04-01T13:22:41;3.47;;;1.40;;
56517;SDS011;42419;48.760;2.322;2023-04-01T13:31:12;2.70;;;1.30;;
56517;SDS011;42419;48.760;2.322;2023-04-01T13:33:46;2.13;;;1.40;;
56517;SDS011;42419;48.760;2.322;2023-04-01T13:40:02;2.37;;;1.37;;
56517;SDS011;42419;48.760;2.322;2023-04-01T13:42:57;3.93;;;2.27;;
56517;SDS011;42419;48.760;2.322;2023-04-01T13:48:25;2.50;;;1.33;;
56517;SDS011;42419;48.760;2.322;2023-04-01T13:50:57;3.40;;;1.57;;
56517;SDS011;42419;48.760;2.322;2023-04-01T13:56:37;2.00;;;1.13;;
56517;SDS011;42419;48.760;2.322;2023-04-01T14:07:08;2.20;;;1.10;;
56517;SDS011;42419;48.760;2.322;2023-04-01T14:12:40;2.10;;;1.37;;
56517;SDS011;42419;48.760;2.322;2023-04-01T14:18:16;3.00;;;1.63;;
56517;SDS011;42419;48.760;2.322;2023-04-01T14:21:21;3.70;;;1.80;;
56517;SDS011;42419;48.760;2.322;2023-04-01T14:26:30;2.03;;;1.47;;
56517;SDS011;42419;48.760;2.322;2023-04-01T14:29:35;4.83;;;1.43;;
56517;SDS011;42419;48.760;2.322;2023-04-01T14:51:58;4.33;;;1.87;;
56517;SDS011;42419;48.760;2.322;2023-04-01T14:54:36;5.30;;;1.40;;
56517;SDS011;42419;48.760;2.322;2023-04-01T15:13:58;3.00;;;1.40;;
56517;SDS011;42419;48.760;2.322;2023-04-01T15:19:31;2.50;;;1.50;;
56517;SDS011;42419;48.760;2.322;2023-04-01T15:30:21;1.87;;;1.43;;
56517;SDS011;42419;48.760;2.322;2023-04-01T15:35:45;5.30;;;1.73;;
56517;SDS011;42419;48.760;2.322;2023-04-01T15:43:40;3.50;;;1.10;;
56517;SDS011;42419;48.760;2.322;2023-04-01T16:00:19;2.27;;;1.10;;
56517;SDS011;42419;48.760;2.322;2023-04-01T16:03:18;2.97;;;1.50;;
56517;SDS011;42419;48.760;2.322;2023-04-01T16:19:56;2.40;;;1.30;;
56517;SDS011;42419;48.760;2.322;2023-04-01T16:22:28;2.07;;;1.33;;
56517;SDS011;42419;48.760;2.322;2023-04-01T16:30:56;2.00;;;1.40;;
56517;SDS011;42419;48.760;2.322;2023-04-01T16:41:47;1.30;;;1.17;;
56517;SDS011;42419;48.760;2.322;2023-04-01T16:44:18;2.20;;;1.50;;
56517;SDS011;42419;48.760;2.322;2023-04-01T16:46:49;4.70;;;3.90;;
56517;SDS011;42419;48.760;2.322;2023-04-01T17:02:22;6.57;;;4.43;;
56517;SDS011;42419;48.760;2.322;2023-04-01T17:04:57;11.70;;;7.20;;
56517;SDS011;42419;48.760;2.322;2023-04-01T17:10:33;25.50;;;16.40;;
56517;SDS011;42419;48.760;2.322;2023-04-01T17:19:11;44.00;;;30.50;;
56517;SDS011;42419;48.760;2.322;2023-04-01T17:27:37;34.93;;;22.80;;
56517;SDS011;42419;48.760;2.322;2023-04-01T17:30:28;32.27;;;18.37;;
56517;SDS011;42419;48.760;2.322;2023-04-01T17:35:40;22.43;;;13.80;;
56517;SDS011;42419;48.760;2.322;2023-04-01T17:38:21;16.90;;;10.93;;
56517;SDS011;42419;48.760;2.322;2023-04-01T17:44:07;16.33;;;10.23;;
56517;SDS011;42419;48.760;2.322;2023-04-01T17:57:32;10.93;;;6.70;;
56517;SDS011;42419;48.760;2.322;2023-04-01T18:00:16;8.27;;;5.70;;
56517;SDS011;42419;48.760;2.322;2023-04-01T18:06:02;14.27;;;6.00;;
56517;SDS011;42419;48.760;2.322;2023-04-01T18:19:08;9.33;;;6.00;;
56517;SDS011;42419;48.760;2.322;2023-04-01T18:21:49;9.60;;;6.80;;
56517;SDS011;42419;48.760;2.322;2023-04-01T18:26:46;8.63;;;6.97;;
56517;SDS011;42419;48.760;2.322;2023-04-01T18:29:52;10.63;;;5.70;;
56517;SDS011;42419;48.760;2.322;2023-04-01T18:38:06;14.30;;;6.60;;
56517;SDS011;42419;48.760;2.322;2023-04-01T18:40:40;10.33;;;5.93;;
56517;SDS011;42419;48.760;2.322;2023-04-01T18:43:16;6.80;;;5.57;;
56517;SDS011;42419;48.760;2.322;2023-04-01T18:45:49;11.57;;;5.70;;
56517;SDS011;42419;48.760;2.322;2023-04-01T18:51:20;13.57;;;5.20;;
56517;SDS011;42419;48.760;2.322;2023-04-01T18:53:54;11.80;;;5.67;;
56517;SDS011;42419;48.760;2.322;2023-04-01T18:56:39;8.20;;;4.83;;
56517;SDS011;42419;48.760;2.322;2023-04-01T18:59:10;9.27;;;4.83;;
56517;SDS011;42419;48.760;2.322;2023-04-01T19:01:43;11.20;;;5.60;;
56517;SDS011;42419;48.760;2.322;2023-04-01T19:04:30;6.10;;;4.10;;
56517;SDS011;42419;48.760;2.322;2023-04-01T19:07:20;7.80;;;4.37;;
56517;SDS011;42419;48.760;2.322;2023-04-01T19:09:49;8.17;;;5.37;;
56517;SDS011;42419;48.760;2.322;2023-04-01T19:15:38;7.87;;;5.10;;
56517;SDS011;42419;48.760;2.322;2023-04-01T19:23:34;5.20;;;4.27;;
56517;SDS011;42419;48.760;2.322;2023-04-01T19:26:34;9.10;;;4.00;;
56517;SDS011;42419;48.760;2.322;2023-04-01T19:29:10;6.43;;;4.07;;
56517;SDS011;42419;48.760;2.322;2023-04-01T19:39:48;5.90;;;3.67;;
56517;SDS011;42419;48.760;2.322;2023-04-01T19:45:54;4.93;;;3.50;;
56517;SDS011;42419;48.760;2.322;2023-04-01T19:51:20;5.80;;;3.80;;
56517;SDS011;42419;48.760;2.322;2023-04-01T19:56:41;5.17;;;3.80;;
56517;SDS011;42419;48.760;2.322;2023-04-01T19:59:48;3.33;;;3.03;;
56517;SDS011;42419;48.760;2.322;2023-04-01T20:02:26;4.60;;;3.30;;
56517;SDS011;42419;48.760;2.322;2023-04-01T20:04:58;4.83;;;3.37;;
56517;SDS011;42419;48.760;2.322;2023-04-01T20:07:41;6.47;;;4.07;;
56517;SDS011;42419;48.760;2.322;2023-04-01T20:10:17;3.93;;;3.20;;
56517;SDS011;42419;48.760;2.322;2023-04-01T20:13:08;5.77;;;3.60;;
56517;SDS011;42419;48.760;2.322;2023-04-01T20:15:44;4.37;;;3.17;;
56517;SDS011;42419;48.760;2.322;2023-04-01T20:18:22;6.40;;;3.20;;
56517;SDS011;42419;48.760;2.322;2023-04-01T20:20:57;4.47;;;2.93;;
56517;SDS011;42419;48.760;2.322;2023-04-01T20:23:50;4.90;;;3.60;;
56517;SDS011;42419;48.760;2.322;2023-04-01T20:26:21;5.53;;;3.80;;
56517;SDS011;42419;48.760;2.322;2023-04-01T20:31:26;6.97;;;3.47;;
56517;SDS011;42419;48.760;2.322;2023-04-01T20:34:05;5.27;;;3.30;;
56517;SDS011;42419;48.760;2.322;2023-04-01T20:36:46;5.80;;;3.20;;
56517;SDS011;42419;48.760;2.322;2023-04-01T20:39:31;5.30;;;3.33;;
56517;SDS011;42419;48.760;2.322;2023-04-01T20:44:41;4.77;;;3.23;;
56517;SDS011;42419;48.760;2.322;2023-04-01T20:53:29;6.13;;;3.07;;
56517;SDS011;42419;48.760;2.322;2023-04-01T20:58:58;4.93;;;2.97;;
56517;SDS011;42419;48.760;2.322;2023-04-01T21:01:41;4.10;;;2.80;;
56517;SDS011;42419;48.760;2.322;2023-04-01T21:07:41;6.43;;;3.53;;
56517;SDS011;42419;48.760;2.322;2023-04-01T21:10:20;7.97;;;3.33;;
56517;SDS011;42419;48.760;2.322;2023-04-01T21:13:12;4.10;;;2.83;;
56517;SDS011;42419;48.760;2.322;2023-04-01T21:15:55;3.17;;;2.70;;
56517;SDS011;42419;48.760;2.322;2023-04-01T21:18:30;2.90;;;2.20;;
56517;SDS011;42419;48.760;2.322;2023-04-01T21:29:15;3.93;;;2.77;;
56517;SDS011;42419;48.760;2.322;2023-04-01T21:34:43;3.23;;;2.63;;
56517;SDS011;42419;48.760;2.322;2023-04-01T21:37:36;6.07;;;2.63;;
56517;SDS011;42419;48.760;2.322;2023-04-01T21:40:15;2.77;;;2.20;;
56517;SDS011;42419;48.760;2.322;2023-04-01T21:43:08;4.23;;;2.70;;
56517;SDS011;42419;48.760;2.322;2023-04-01T21:48:32;3.43;;;2.70;;
56517;SDS011;42419;48.760;2.322;2023-04-01T21:51:04;2.53;;;2.33;;
56517;SDS011;42419;48.760;2.322;2023-04-01T22:07:19;3.13;;;2.10;;
56517;SDS011;42419;48.760;2.322;2023-04-01T22:12:42;3.73;;;2.63;;
56517;SDS011;42419;48.760;2.322;2023-04-01T22:18:08;2.93;;;2.00;;
56517;SDS011;42419;48.760;2.322;2023-04-01T22:20:45;3.27;;;2.63;;
56517;SDS011;42419;48.760;2.322;2023-04-01T22:23:51;3.30;;;2.17;;
56517;SDS011;42419;48.760;2.322;2023-04-01T22:29:30;5.60;;;2.40;;
56517;SDS011;42419;48.760;2.322;2023-04-01T22:37:31;2.40;;;2.17;;
56517;SDS011;42419;48.760;2.322;2023-04-01T22:40:14;7.07;;;2.87;;
56517;SDS011;42419;48.760;2.322;2023-04-01T22:43:05;5.47;;;3.17;;
56517;SDS011;42419;48.760;2.322;2023-04-01T22:48:26;4.20;;;2.93;;
56517;SDS011;42419;48.760;2.322;2023-04-01T22:56:37;10.50;;;7.10;;
56517;SDS011;42419;48.760;2.322;2023-04-01T23:01:37;7.33;;;5.67;;
56517;SDS011;42419;48.760;2.322;2023-04-01T23:04:08;4.77;;;4.37;;
56517;SDS011;42419;48.760;2.322;2023-04-01T23:06:42;7.40;;;5.73;;
56517;SDS011;42419;48.760;2.322;2023-04-01T23:09:14;5.30;;;4.50;;
56517;SDS011;42419;48.760;2.322;2023-04-01T23:11:46;9.00;;;4.70;;
56517;SDS011;42419;48.760;2.322;2023-04-01T23:19:55;9.10;;;8.27;;
56517;SDS011;42419;48.760;2.322;2023-04-01T23:27:52;9.30;;;8.30;;
56517;SDS011;42419;48.760;2.322;2023-04-01T23:33:11;13.77;;;12.47;;
56517;SDS011;42419;48.760;2.322;2023-04-01T23:35:51;12.17;;;10.40;;
56517;SDS011;42419;48.760;2.322;2023-04-01T23:38:18;9.50;;;8.60;;
56517;SDS011;42419;48.760;2.322;2023-04-01T23:40:47;9.60;;;8.53;;
56517;SDS011;42419;48.760;2.322;2023-04-01T23:43:17;8.27;;;7.57;;
56517;SDS011;42419;48.760;2.322;2023-04-01T23:45:49;8.37;;;7.10;;
56517;SDS011;42419;48.760;2.322;2023-04-01T23:48:15;12.03;;;6.53;;
56517;SDS011;42419;48.760;2.322;2023-04-01T23:50:41;8.53;;;6.67;;
56517;SDS011;42419;48.760;2.322;2023-04-01T23:53:11;6.53;;;5.87;;
56517;SDS011;42419;48.760;2.322;2023-04-01T23:55:41;6.47;;;5.83;;
